createdAt,value
2019-05-07T00:00:32.937Z,28.10
2019-05-07T00:01:34.011Z,28.40
2019-05-07T00:02:25.747Z,28.00
2019-05-07T00:02:32.240Z,29.10
2019-05-07T00:03:32.814Z,29.50
2019-05-07T00:04:33.218Z,27.70
2019-05-07T00:04:54.772Z,26.57
2019-05-07T00:05:33.128Z,28.80
2019-05-07T00:06:32.626Z,29.40
2019-05-07T00:07:23.764Z,26.73
2019-05-07T00:07:32.187Z,29.10
2019-05-07T00:08:32.316Z,28.80
2019-05-07T00:09:32.419Z,29.70
2019-05-07T00:09:52.738Z,28.20
2019-05-07T00:10:33.184Z,29.10
2019-05-07T00:11:33.095Z,29.30
2019-05-07T00:12:23.061Z,28.47
2019-05-07T00:12:32.403Z,30.60
2019-05-07T00:13:33.370Z,30.50
2019-05-07T00:14:34.612Z,31.20
2019-05-07T00:15:00.870Z,27.90
2019-05-07T00:15:32.915Z,31.10
2019-05-07T00:16:32.563Z,30.80
2019-05-07T00:17:23.028Z,29.97
2019-05-07T00:17:32.395Z,31.10
2019-05-07T00:18:32.465Z,32.00
2019-05-07T00:19:32.561Z,31.90
2019-05-07T00:19:52.541Z,29.53
2019-05-07T00:20:32.856Z,32.00
2019-05-07T00:21:32.726Z,33.50
2019-05-07T00:22:22.731Z,29.33
2019-05-07T00:22:32.724Z,32.80
2019-05-07T00:23:32.679Z,33.20
2019-05-07T00:24:33.181Z,32.20
2019-05-07T00:24:52.242Z,30.93
2019-05-07T00:25:32.982Z,31.30
2019-05-07T00:26:32.444Z,33.00
2019-05-07T00:27:22.616Z,29.23
2019-05-07T00:27:32.466Z,31.60
2019-05-07T00:28:32.648Z,31.90
2019-05-07T00:29:32.498Z,32.90
2019-05-07T00:29:52.125Z,30.33
2019-05-07T00:30:33.224Z,32.60
2019-05-07T00:31:32.672Z,32.30
2019-05-07T00:32:22.148Z,29.87
2019-05-07T00:32:32.821Z,32.80
2019-05-07T00:33:32.575Z,33.10
2019-05-07T00:34:32.846Z,31.70
2019-05-07T00:34:55.436Z,32.00
2019-05-07T00:35:32.604Z,32.20
2019-05-07T00:36:32.620Z,32.80
2019-05-07T00:37:32.639Z,31.50
2019-05-07T00:37:33.738Z,29.47
2019-05-07T00:38:32.654Z,29.90
2019-05-07T00:39:32.890Z,31.90
2019-05-07T00:40:22.416Z,28.70
2019-05-07T00:40:32.690Z,31.30
2019-05-07T00:41:32.707Z,31.50
2019-05-07T00:42:32.849Z,31.00
2019-05-07T00:43:09.435Z,29.33
2019-05-07T00:43:32.744Z,31.20
2019-05-07T00:44:32.874Z,31.40
2019-05-07T00:45:32.775Z,31.30
2019-05-07T00:45:46.519Z,30.13
2019-05-07T00:46:32.795Z,30.40
2019-05-07T00:47:33.121Z,31.30
2019-05-07T00:48:15.413Z,30.23
2019-05-07T00:48:33.090Z,31.60
2019-05-07T00:49:33.133Z,32.10
2019-05-07T00:50:33.233Z,32.20
2019-05-07T00:50:45.873Z,29.93
2019-05-07T00:51:33.538Z,32.20
2019-05-07T00:52:33.503Z,30.60
2019-05-07T00:53:14.846Z,29.20
2019-05-07T00:53:32.999Z,30.60
2019-05-07T00:54:32.938Z,29.90
2019-05-07T00:55:32.951Z,29.80
2019-05-07T00:55:43.839Z,29.33
2019-05-07T00:56:33.330Z,30.30
2019-05-07T00:57:32.986Z,30.30
2019-05-07T00:58:13.355Z,28.03
2019-05-07T00:58:33.001Z,30.00
2019-05-07T00:59:33.025Z,30.90
2019-05-07T01:00:33.376Z,29.50
2019-05-07T01:00:42.413Z,26.63
2019-05-07T01:01:33.051Z,29.70
2019-05-07T01:02:33.074Z,29.30
2019-05-07T01:03:12.844Z,26.57
2019-05-07T01:03:33.089Z,28.80
2019-05-07T01:04:33.237Z,28.50
2019-05-07T01:05:33.127Z,28.40
2019-05-07T01:05:43.172Z,27.30
2019-05-07T01:06:33.283Z,28.90
2019-05-07T01:07:33.155Z,28.20
2019-05-07T01:08:13.158Z,26.97
2019-05-07T01:08:33.176Z,28.10
2019-05-07T01:09:33.191Z,28.00
2019-05-07T01:10:33.213Z,28.90
2019-05-07T01:10:42.287Z,26.17
2019-05-07T01:11:33.656Z,28.10
2019-05-07T01:12:33.243Z,27.50
2019-05-07T01:13:12.542Z,25.83
2019-05-07T01:13:33.257Z,27.30
2019-05-07T01:14:33.280Z,27.40
2019-05-07T01:15:34.730Z,27.20
2019-05-07T01:15:43.043Z,25.40
2019-05-07T01:16:33.311Z,27.40
2019-05-07T01:17:33.602Z,26.70
2019-05-07T01:18:12.500Z,24.60
2019-05-07T01:18:33.345Z,27.30
2019-05-07T01:19:33.368Z,26.10
2019-05-07T01:20:33.379Z,26.30
2019-05-07T01:20:42.341Z,24.77
2019-05-07T01:21:33.393Z,25.80
2019-05-07T01:22:33.412Z,24.90
2019-05-07T01:23:13.368Z,24.83
2019-05-07T01:23:33.430Z,26.00
2019-05-07T01:24:33.445Z,25.20
2019-05-07T01:25:33.461Z,25.00
2019-05-07T01:25:43.088Z,22.60
2019-05-07T01:26:33.480Z,24.60
2019-05-07T01:27:33.498Z,24.90
2019-05-07T01:28:13.173Z,22.10
2019-05-07T01:28:33.516Z,24.70
2019-05-07T01:29:33.532Z,24.80
2019-05-07T01:30:33.549Z,23.50
2019-05-07T01:30:43.169Z,22.50
2019-05-07T01:31:33.566Z,22.80
2019-05-07T01:32:33.582Z,23.30
2019-05-07T01:33:23.949Z,22.20
2019-05-07T01:33:33.599Z,23.50
2019-05-07T01:34:33.616Z,23.90
2019-05-07T01:35:33.633Z,23.80
2019-05-07T01:36:17.557Z,23.23
2019-05-07T01:36:33.654Z,23.70
2019-05-07T01:37:33.671Z,22.70
2019-05-07T01:38:33.687Z,23.00
2019-05-07T01:38:46.547Z,21.50
2019-05-07T01:39:33.702Z,23.50
2019-05-07T01:40:33.720Z,24.10
2019-05-07T01:41:15.459Z,21.93
2019-05-07T01:41:33.739Z,24.10
2019-05-07T01:42:36.494Z,25.10
2019-05-07T01:43:33.770Z,24.20
2019-05-07T01:43:44.448Z,21.53
2019-05-07T01:44:33.789Z,24.20
2019-05-07T01:45:45.459Z,23.60
2019-05-07T01:46:13.524Z,21.07
2019-05-07T01:46:33.821Z,23.40
2019-05-07T01:47:33.840Z,23.70
2019-05-07T01:48:33.859Z,24.10
2019-05-07T01:48:42.996Z,22.13
2019-05-07T01:49:33.872Z,23.70
2019-05-07T01:50:33.891Z,24.10
2019-05-07T01:51:12.929Z,21.97
2019-05-07T01:51:33.915Z,23.20
2019-05-07T01:52:33.927Z,23.00
2019-05-07T01:53:33.942Z,24.00
2019-05-07T01:53:43.000Z,22.93
2019-05-07T01:54:33.960Z,25.20
2019-05-07T01:55:33.996Z,25.90
2019-05-07T01:56:12.498Z,21.73
2019-05-07T01:56:34.000Z,25.10
2019-05-07T01:57:34.013Z,25.30
2019-05-07T01:58:34.040Z,24.10
2019-05-07T01:58:42.473Z,22.90
2019-05-07T01:59:34.044Z,25.90
2019-05-07T02:00:34.062Z,25.50
2019-05-07T02:01:13.078Z,20.93
2019-05-07T02:01:35.873Z,25.40
2019-05-07T02:02:34.097Z,24.60
2019-05-07T02:03:34.115Z,24.70
2019-05-07T02:03:57.256Z,22.57
2019-05-07T02:04:34.130Z,25.50
2019-05-07T02:05:34.150Z,25.30
2019-05-07T02:06:34.166Z,25.20
2019-05-07T02:07:34.184Z,24.10
2019-05-07T02:08:34.205Z,24.20
2019-05-07T02:09:34.234Z,24.90
2019-05-07T02:09:51.898Z,21.17
2019-05-07T02:10:34.231Z,24.10
2019-05-07T02:11:34.249Z,25.30
2019-05-07T02:12:26.633Z,20.80
2019-05-07T02:12:34.268Z,24.50
2019-05-07T02:13:34.285Z,24.60
2019-05-07T02:14:34.299Z,25.60
2019-05-07T02:14:55.596Z,23.20
2019-05-07T02:15:34.318Z,24.10
2019-05-07T02:16:34.334Z,23.80
2019-05-07T02:17:24.587Z,21.33
2019-05-07T02:17:34.349Z,23.80
2019-05-07T02:18:34.367Z,23.90
2019-05-07T02:19:34.387Z,23.60
2019-05-07T02:19:53.475Z,21.77
2019-05-07T02:20:34.400Z,24.50
2019-05-07T02:21:34.421Z,25.60
2019-05-07T02:22:22.763Z,24.20
2019-05-07T02:22:34.437Z,23.70
2019-05-07T02:23:34.455Z,25.70
2019-05-07T02:24:34.472Z,25.30
2019-05-07T02:24:52.362Z,23.67
2019-05-07T02:25:34.489Z,26.10
2019-05-07T02:26:34.505Z,25.60
2019-05-07T02:27:22.068Z,23.83
2019-05-07T02:27:34.519Z,25.20
2019-05-07T02:28:34.540Z,26.00
2019-05-07T02:29:34.553Z,24.60
2019-05-07T02:29:52.859Z,22.70
2019-05-07T02:30:35.379Z,25.10
2019-05-07T02:31:34.593Z,24.90
2019-05-07T02:32:24.035Z,22.70
2019-05-07T02:32:34.603Z,24.30
2019-05-07T02:33:35.261Z,25.60
2019-05-07T02:34:34.713Z,24.30
2019-05-07T02:34:54.513Z,22.67
2019-05-07T02:35:34.662Z,24.00
2019-05-07T02:36:34.675Z,24.50
2019-05-07T02:37:35.706Z,23.33
2019-05-07T02:37:47.070Z,24.50
2019-05-07T02:38:34.709Z,24.50
2019-05-07T02:39:34.731Z,24.60
2019-05-07T02:40:34.746Z,24.10
2019-05-07T02:40:36.395Z,22.67
2019-05-07T02:41:34.758Z,25.90
2019-05-07T02:42:34.790Z,25.90
2019-05-07T02:43:05.280Z,22.93
2019-05-07T02:43:34.793Z,25.20
2019-05-07T02:44:34.818Z,25.70
2019-05-07T02:45:34.829Z,26.50
2019-05-07T02:45:50.047Z,24.13
2019-05-07T02:46:36.331Z,24.80
2019-05-07T02:47:34.867Z,25.00
2019-05-07T02:48:23.712Z,21.70
2019-05-07T02:48:34.875Z,25.00
2019-05-07T02:49:34.894Z,24.30
2019-05-07T02:50:34.917Z,23.80
2019-05-07T02:51:00.212Z,21.67
2019-05-07T02:51:34.928Z,25.60
2019-05-07T02:52:34.947Z,24.70
2019-05-07T02:53:34.965Z,25.10
2019-05-07T02:53:37.974Z,21.60
2019-05-07T02:54:34.977Z,26.60
2019-05-07T02:55:35.003Z,26.10
2019-05-07T02:56:06.933Z,21.97
2019-05-07T02:56:35.038Z,26.70
2019-05-07T02:57:35.030Z,26.10
2019-05-07T02:58:35.049Z,25.40
2019-05-07T02:58:35.892Z,20.57
2019-05-07T02:59:35.064Z,25.70
2019-05-07T03:00:35.084Z,26.80
2019-05-07T03:01:05.297Z,23.20
2019-05-07T03:01:35.100Z,26.30
2019-05-07T03:02:35.120Z,26.50
2019-05-07T03:03:34.397Z,23.47
2019-05-07T03:03:35.130Z,26.40
2019-05-07T03:04:35.144Z,27.00
2019-05-07T03:05:35.338Z,26.40
2019-05-07T03:06:03.409Z,23.47
2019-05-07T03:06:35.185Z,27.30
2019-05-07T03:07:35.194Z,25.70
2019-05-07T03:08:33.086Z,21.87
2019-05-07T03:08:35.214Z,24.70
2019-05-07T03:09:35.228Z,25.20
2019-05-07T03:10:35.257Z,25.70
2019-05-07T03:11:03.298Z,20.37
2019-05-07T03:11:35.262Z,25.70
2019-05-07T03:12:35.284Z,24.60
2019-05-07T03:13:33.615Z,22.00
2019-05-07T03:13:35.298Z,24.70
2019-05-07T03:14:35.315Z,26.40
2019-05-07T03:15:35.333Z,25.50
2019-05-07T03:16:03.742Z,20.83
2019-05-07T03:16:43.780Z,24.40
2019-05-07T03:17:35.367Z,25.40
2019-05-07T03:18:33.680Z,20.60
2019-05-07T03:18:35.380Z,24.60
2019-05-07T03:19:35.403Z,24.50
2019-05-07T03:20:35.414Z,24.50
2019-05-07T03:21:12.667Z,20.20
2019-05-07T03:21:35.437Z,25.10
2019-05-07T03:22:35.450Z,24.90
2019-05-07T03:23:35.461Z,27.00
2019-05-07T03:23:54.315Z,20.60
2019-05-07T03:24:35.478Z,26.20
2019-05-07T03:25:35.495Z,25.60
2019-05-07T03:26:28.629Z,20.73
2019-05-07T03:26:35.513Z,25.30
2019-05-07T03:27:35.526Z,25.50
2019-05-07T03:28:35.547Z,26.40
2019-05-07T03:28:59.742Z,21.43
2019-05-07T03:29:35.560Z,24.10
2019-05-07T03:30:36.376Z,25.20
2019-05-07T03:31:36.720Z,25.20
2019-05-07T03:31:47.940Z,21.27
2019-05-07T03:32:39.615Z,25.80
2019-05-07T03:33:36.941Z,23.60
2019-05-07T03:34:27.694Z,21.50
2019-05-07T03:34:37.295Z,24.30
2019-05-07T03:35:37.658Z,23.20
2019-05-07T03:36:35.679Z,23.40
2019-05-07T03:36:57.548Z,21.70
2019-05-07T03:37:36.552Z,24.40
2019-05-07T03:38:35.706Z,24.60
2019-05-07T03:39:26.849Z,21.60
2019-05-07T03:39:35.724Z,24.30
2019-05-07T03:40:35.740Z,24.60
2019-05-07T03:41:35.752Z,24.50
2019-05-07T03:41:55.832Z,22.93
2019-05-07T03:42:35.772Z,24.60
2019-05-07T03:43:35.785Z,24.10
2019-05-07T03:44:35.805Z,24.20
2019-05-07T03:44:44.482Z,21.97
2019-05-07T03:45:35.822Z,24.70
2019-05-07T03:46:52.792Z,25.20
2019-05-07T03:47:19.412Z,21.03
2019-05-07T03:47:35.857Z,22.90
2019-05-07T03:48:35.889Z,23.50
2019-05-07T03:49:35.885Z,23.30
2019-05-07T03:49:48.508Z,20.33
2019-05-07T03:50:35.900Z,24.00
2019-05-07T03:51:35.918Z,23.50
2019-05-07T03:52:17.497Z,21.03
2019-05-07T03:52:35.931Z,23.30
2019-05-07T03:53:35.955Z,24.20
2019-05-07T03:54:35.968Z,23.50
2019-05-07T03:54:46.392Z,20.20
2019-05-07T03:55:35.982Z,24.60
2019-05-07T03:56:36.000Z,23.70
2019-05-07T03:57:15.965Z,18.33
2019-05-07T03:57:36.013Z,24.40
2019-05-07T03:58:36.034Z,24.00
2019-05-07T03:59:36.052Z,24.10
2019-05-07T03:59:45.298Z,20.13
2019-05-07T04:00:36.065Z,22.30
2019-05-07T04:01:36.078Z,22.90
2019-05-07T04:02:14.506Z,20.03
2019-05-07T04:02:36.094Z,24.40
2019-05-07T04:03:36.117Z,23.90
2019-05-07T04:04:36.126Z,23.40
2019-05-07T04:04:43.608Z,18.67
2019-05-07T04:05:36.141Z,22.10
2019-05-07T04:06:36.168Z,22.50
2019-05-07T04:07:13.822Z,18.97
2019-05-07T04:07:36.174Z,21.80
2019-05-07T04:08:36.192Z,22.70
2019-05-07T04:09:36.209Z,23.30
2019-05-07T04:09:43.791Z,19.57
2019-05-07T04:10:36.226Z,22.90
2019-05-07T04:11:36.247Z,23.00
2019-05-07T04:12:13.401Z,19.83
2019-05-07T04:12:36.254Z,22.40
2019-05-07T04:13:36.302Z,21.70
2019-05-07T04:14:36.289Z,23.00
2019-05-07T04:14:43.284Z,19.17
2019-05-07T04:15:36.302Z,21.90
2019-05-07T04:16:36.322Z,23.50
2019-05-07T04:17:17.336Z,18.60
2019-05-07T04:17:36.334Z,23.00
2019-05-07T04:18:36.348Z,22.30
2019-05-07T04:19:36.379Z,23.30
2019-05-07T04:19:44.090Z,18.13
2019-05-07T04:20:36.386Z,20.40
2019-05-07T04:21:36.416Z,20.90
2019-05-07T04:22:13.681Z,19.73
2019-05-07T04:22:36.412Z,22.30
2019-05-07T04:23:36.449Z,22.70
2019-05-07T04:24:36.450Z,22.10
2019-05-07T04:25:14.020Z,17.83
2019-05-07T04:25:36.471Z,21.10
2019-05-07T04:26:36.486Z,22.60
2019-05-07T04:27:36.535Z,21.50
2019-05-07T04:27:52.579Z,17.10
2019-05-07T04:28:36.516Z,21.00
2019-05-07T04:29:36.530Z,21.80
2019-05-07T04:30:23.321Z,18.03
2019-05-07T04:30:36.547Z,22.60
2019-05-07T04:31:36.565Z,21.30
2019-05-07T04:32:36.572Z,21.30
2019-05-07T04:32:53.178Z,18.70
2019-05-07T04:33:36.596Z,21.50
2019-05-07T04:34:36.617Z,20.70
2019-05-07T04:35:33.500Z,19.07
2019-05-07T04:35:36.627Z,21.60
2019-05-07T04:36:36.639Z,22.30
2019-05-07T04:37:36.809Z,24.70
2019-05-07T04:38:06.729Z,19.50
2019-05-07T04:38:36.670Z,22.80
2019-05-07T04:39:36.688Z,22.40
2019-05-07T04:40:33.950Z,20.47
2019-05-07T04:40:36.705Z,22.80
2019-05-07T04:41:36.720Z,22.70
2019-05-07T04:42:36.735Z,22.00
2019-05-07T04:43:03.072Z,19.70
2019-05-07T04:43:36.777Z,21.70
2019-05-07T04:44:36.770Z,20.10
2019-05-07T04:45:33.805Z,18.90
2019-05-07T04:45:36.788Z,20.70
2019-05-07T04:46:36.819Z,21.70
2019-05-07T04:47:42.886Z,21.30
2019-05-07T04:48:03.192Z,19.23
2019-05-07T04:48:36.832Z,22.20
2019-05-07T04:49:36.851Z,22.70
2019-05-07T04:50:42.564Z,21.47
2019-05-07T04:50:42.988Z,21.30
2019-05-07T04:51:36.890Z,22.60
2019-05-07T04:52:36.935Z,22.90
2019-05-07T04:53:04.479Z,21.07
2019-05-07T04:53:36.914Z,21.70
2019-05-07T04:54:36.932Z,21.60
2019-05-07T04:55:33.667Z,22.67
2019-05-07T04:55:36.950Z,20.80
2019-05-07T04:56:36.968Z,21.30
2019-05-07T04:57:36.987Z,20.60
2019-05-07T04:58:08.051Z,21.40
2019-05-07T04:58:37.002Z,20.90
2019-05-07T04:59:37.023Z,20.80
2019-05-07T05:00:33.802Z,20.20
2019-05-07T05:00:37.048Z,20.40
2019-05-07T05:01:37.058Z,20.10
2019-05-07T05:02:37.083Z,20.40
2019-05-07T05:03:33.981Z,20.50
2019-05-07T05:03:39.298Z,18.10
2019-05-07T05:04:37.118Z,19.50
2019-05-07T05:05:37.132Z,19.70
2019-05-07T05:06:02.643Z,20.57
2019-05-07T05:06:37.150Z,19.30
2019-05-07T05:07:37.170Z,19.80
2019-05-07T05:08:32.555Z,18.87
2019-05-07T05:08:37.191Z,18.50
2019-05-07T05:09:37.218Z,20.00
2019-05-07T05:10:37.236Z,19.90
2019-05-07T05:11:03.317Z,19.33
2019-05-07T05:11:37.253Z,19.80
2019-05-07T05:12:37.269Z,19.50
2019-05-07T05:13:33.306Z,19.17
2019-05-07T05:13:37.295Z,19.30
2019-05-07T05:14:37.313Z,18.90
2019-05-07T05:15:37.332Z,19.20
2019-05-07T05:16:22.458Z,18.07
2019-05-07T05:16:37.357Z,18.90
2019-05-07T05:17:49.698Z,19.60
2019-05-07T05:18:37.398Z,20.70
2019-05-07T05:18:51.837Z,18.47
2019-05-07T05:19:37.418Z,20.30
2019-05-07T05:20:37.438Z,20.40
2019-05-07T05:21:37.468Z,19.40
2019-05-07T05:21:38.954Z,17.87
2019-05-07T05:22:37.482Z,18.90
2019-05-07T05:23:37.504Z,19.10
2019-05-07T05:24:12.654Z,18.10
2019-05-07T05:24:37.525Z,19.30
2019-05-07T05:25:37.548Z,20.00
2019-05-07T05:26:37.572Z,18.80
2019-05-07T05:26:42.000Z,17.93
2019-05-07T05:27:37.593Z,19.00
2019-05-07T05:28:37.613Z,18.10
2019-05-07T05:29:12.165Z,18.40
2019-05-07T05:29:37.636Z,19.20
2019-05-07T05:30:37.661Z,18.50
2019-05-07T05:31:37.682Z,18.50
2019-05-07T05:31:42.156Z,16.03
2019-05-07T05:32:37.708Z,19.00
2019-05-07T05:33:37.732Z,18.30
2019-05-07T05:34:13.061Z,17.70
2019-05-07T05:34:37.752Z,19.20
2019-05-07T05:35:37.777Z,19.50
2019-05-07T05:36:37.797Z,19.40
2019-05-07T05:36:42.564Z,17.97
2019-05-07T05:37:37.823Z,18.60
2019-05-07T05:38:37.847Z,18.10
2019-05-07T05:39:13.207Z,17.13
2019-05-07T05:39:37.871Z,18.60
2019-05-07T05:40:37.940Z,18.10
2019-05-07T05:41:38.131Z,18.00
2019-05-07T05:41:43.756Z,17.07
2019-05-07T05:42:38.033Z,18.80
2019-05-07T05:43:38.043Z,18.70
2019-05-07T05:44:32.143Z,16.67
2019-05-07T05:44:38.037Z,18.70
2019-05-07T05:45:38.163Z,18.10
2019-05-07T05:46:38.056Z,17.60
2019-05-07T05:47:02.394Z,17.33
2019-05-07T05:47:38.072Z,18.70
2019-05-07T05:48:38.094Z,18.40
2019-05-07T05:49:32.174Z,17.20
2019-05-07T05:49:38.106Z,18.00
2019-05-07T05:50:38.151Z,18.20
2019-05-07T05:51:38.162Z,18.50
2019-05-07T05:52:22.070Z,16.93
2019-05-07T05:52:38.183Z,17.70
2019-05-07T05:53:38.201Z,17.80
2019-05-07T05:54:38.240Z,18.30
2019-05-07T05:55:02.544Z,15.87
2019-05-07T05:55:38.249Z,18.60
2019-05-07T05:56:38.271Z,17.40
2019-05-07T05:57:38.302Z,17.00
2019-05-07T05:58:05.818Z,15.50
2019-05-07T05:58:38.326Z,17.40
2019-05-07T05:59:49.003Z,17.30
2019-05-07T06:00:38.372Z,17.60
2019-05-07T06:00:53.068Z,15.37
2019-05-07T06:01:38.394Z,16.60
2019-05-07T06:02:38.416Z,17.40
2019-05-07T06:03:38.447Z,16.60
2019-05-07T06:03:51.986Z,14.07
2019-05-07T06:04:38.470Z,14.30
2019-05-07T06:05:38.492Z,14.50
2019-05-07T06:06:27.282Z,13.07
2019-05-07T06:06:38.519Z,14.20
2019-05-07T06:07:38.540Z,15.90
2019-05-07T06:08:38.562Z,14.90
2019-05-07T06:09:01.927Z,12.43
2019-05-07T06:09:38.587Z,13.90
2019-05-07T06:10:38.613Z,14.10
2019-05-07T06:11:38.635Z,14.70
2019-05-07T06:11:56.164Z,13.30
2019-05-07T06:12:38.660Z,14.90
2019-05-07T06:13:38.685Z,14.40
2019-05-07T06:14:38.712Z,13.90
2019-05-07T06:14:47.176Z,12.03
2019-05-07T06:15:38.731Z,14.50
2019-05-07T06:16:38.762Z,14.50
2019-05-07T06:17:38.778Z,13.40
2019-05-07T06:17:47.498Z,11.07
2019-05-07T06:18:38.805Z,12.90
2019-05-07T06:19:38.825Z,13.70
2019-05-07T06:20:32.871Z,11.93
2019-05-07T06:20:38.848Z,12.70
2019-05-07T06:21:38.876Z,12.60
2019-05-07T06:22:38.897Z,12.60
2019-05-07T06:23:38.913Z,12.60
2019-05-07T06:23:39.367Z,10.73
2019-05-07T06:24:38.937Z,13.70
2019-05-07T06:25:38.958Z,12.60
2019-05-07T06:26:08.448Z,10.97
2019-05-07T06:26:38.982Z,12.40
2019-05-07T06:27:39.006Z,12.50
2019-05-07T06:28:37.427Z,9.80
2019-05-07T06:28:39.025Z,12.20
2019-05-07T06:29:39.048Z,10.50
2019-05-07T06:30:39.068Z,10.90
2019-05-07T06:31:06.424Z,9.47
2019-05-07T06:31:39.093Z,11.50
2019-05-07T06:32:39.108Z,11.60
2019-05-07T06:33:35.311Z,9.30
2019-05-07T06:33:39.131Z,11.30
2019-05-07T06:34:41.663Z,10.70
2019-05-07T06:35:39.178Z,12.20
2019-05-07T06:36:04.435Z,10.43
2019-05-07T06:36:39.194Z,11.20
2019-05-07T06:37:39.217Z,11.30
2019-05-07T06:38:38.932Z,9.93
2019-05-07T06:38:39.238Z,11.60
2019-05-07T06:39:39.261Z,11.80
2019-05-07T06:40:39.287Z,10.10
2019-05-07T06:41:36.183Z,8.90
2019-05-07T06:41:39.308Z,11.00
2019-05-07T06:42:39.324Z,10.10
2019-05-07T06:43:39.345Z,10.10
2019-05-07T06:44:09.475Z,8.83
2019-05-07T06:44:39.368Z,10.50
2019-05-07T06:45:39.433Z,9.30
2019-05-07T06:46:38.916Z,8.83
2019-05-07T06:46:41.837Z,9.50
2019-05-07T06:47:39.441Z,9.50
2019-05-07T06:48:43.572Z,9.80
2019-05-07T06:49:07.891Z,7.63
2019-05-07T06:49:39.478Z,9.00
2019-05-07T06:50:39.535Z,8.80
2019-05-07T06:51:36.763Z,6.80
2019-05-07T06:51:41.861Z,9.40
2019-05-07T06:52:39.549Z,8.00
2019-05-07T06:53:39.569Z,8.00
2019-05-07T06:54:05.648Z,6.23
2019-05-07T06:54:39.595Z,8.20
2019-05-07T06:55:39.615Z,7.90
2019-05-07T06:56:34.638Z,7.70
2019-05-07T06:56:42.007Z,7.70
2019-05-07T06:57:39.661Z,8.50
2019-05-07T06:58:41.750Z,8.50
2019-05-07T06:59:12.835Z,7.53
2019-05-07T06:59:39.710Z,8.40
2019-05-07T07:00:42.020Z,9.20
2019-05-07T07:01:42.179Z,9.30
2019-05-07T07:02:05.342Z,8.37
2019-05-07T07:02:41.824Z,8.80
2019-05-07T07:03:41.879Z,8.50
2019-05-07T07:04:39.826Z,9.40
2019-05-07T07:04:47.083Z,6.50
2019-05-07T07:05:42.347Z,9.00
2019-05-07T07:06:39.874Z,8.20
2019-05-07T07:07:30.178Z,6.90
2019-05-07T07:07:41.971Z,7.70
2019-05-07T07:08:41.890Z,7.50
2019-05-07T07:09:42.299Z,7.10
2019-05-07T07:10:12.612Z,5.80
2019-05-07T07:10:39.966Z,6.60
2019-05-07T07:11:42.296Z,6.60
2019-05-07T07:12:41.880Z,6.40
2019-05-07T07:12:42.456Z,5.40
2019-05-07T07:13:40.046Z,6.90
2019-05-07T07:14:42.225Z,6.70
2019-05-07T07:15:12.216Z,6.10
2019-05-07T07:15:40.080Z,6.70
2019-05-07T07:16:42.069Z,7.00
2019-05-07T07:17:41.889Z,6.70
2019-05-07T07:17:41.923Z,5.83
2019-05-07T07:18:51.096Z,6.60
2019-05-07T07:19:40.178Z,6.30
2019-05-07T07:20:12.748Z,5.53
2019-05-07T07:20:40.195Z,7.40
2019-05-07T07:21:42.148Z,7.90
2019-05-07T07:22:42.446Z,7.20
2019-05-07T07:22:42.562Z,6.67
2019-05-07T07:23:40.258Z,7.10
2019-05-07T07:24:42.287Z,7.40
2019-05-07T07:25:22.949Z,5.50
2019-05-07T07:25:40.304Z,7.80
2019-05-07T07:26:42.190Z,6.70
2019-05-07T07:27:42.713Z,6.60
2019-05-07T07:27:52.160Z,5.70
2019-05-07T07:28:40.371Z,7.00
2019-05-07T07:29:41.937Z,7.10
2019-05-07T07:30:42.056Z,6.60
2019-05-07T07:30:55.342Z,6.13
2019-05-07T07:31:42.470Z,7.40
2019-05-07T07:32:42.423Z,6.50
2019-05-07T07:33:26.596Z,5.87
2019-05-07T07:33:40.474Z,6.80
2019-05-07T07:34:42.599Z,6.70
2019-05-07T07:35:42.740Z,7.10
2019-05-07T07:35:55.578Z,5.87
2019-05-07T07:36:42.357Z,6.80
2019-05-07T07:37:42.838Z,7.70
2019-05-07T07:38:34.009Z,5.47
2019-05-07T07:38:42.072Z,7.10
2019-05-07T07:39:42.867Z,7.20
2019-05-07T07:40:42.221Z,7.80
2019-05-07T07:41:18.492Z,6.13
2019-05-07T07:41:42.097Z,7.20
2019-05-07T07:42:42.628Z,6.60
2019-05-07T07:43:41.959Z,6.60
2019-05-07T07:43:47.448Z,5.97
2019-05-07T07:44:42.582Z,7.50
2019-05-07T07:45:42.000Z,7.40
2019-05-07T07:46:16.744Z,6.43
2019-05-07T07:46:42.443Z,7.40
2019-05-07T07:47:42.239Z,6.60
2019-05-07T07:48:43.341Z,15.80
2019-05-07T07:48:45.929Z,6.17
2019-05-07T07:49:42.063Z,7.30
2019-05-07T07:50:42.111Z,10.10
2019-05-07T07:51:15.008Z,6.53
2019-05-07T07:51:44.441Z,8.50
2019-05-07T07:52:42.048Z,16.80
2019-05-07T07:53:42.506Z,18.30
2019-05-07T07:53:44.016Z,9.17
2019-05-07T07:54:42.876Z,12.00
2019-05-07T07:55:42.591Z,8.10
2019-05-07T07:56:45.396Z,6.57
2019-05-07T07:56:50.245Z,7.50
2019-05-07T07:57:42.725Z,7.90
2019-05-07T07:58:41.950Z,7.90
2019-05-07T07:59:14.727Z,6.73
2019-05-07T07:59:42.156Z,7.90
2019-05-07T08:00:42.853Z,7.30
2019-05-07T08:01:42.097Z,7.60
2019-05-07T08:01:57.996Z,6.30
2019-05-07T08:02:42.431Z,7.20
2019-05-07T08:03:41.804Z,7.00
2019-05-07T08:04:26.999Z,6.07
2019-05-07T08:04:42.594Z,6.80
2019-05-07T08:05:42.724Z,6.60
2019-05-07T08:06:42.077Z,7.40
2019-05-07T08:07:05.103Z,6.27
2019-05-07T08:07:42.615Z,7.90
2019-05-07T08:08:42.441Z,7.60
2019-05-07T08:09:35.000Z,6.53
2019-05-07T08:09:42.785Z,7.90
2019-05-07T08:10:42.540Z,7.60
2019-05-07T08:11:42.558Z,7.00
2019-05-07T08:12:04.377Z,6.20
2019-05-07T08:12:42.198Z,7.50
2019-05-07T08:13:42.485Z,6.90
2019-05-07T08:14:33.615Z,6.43
2019-05-07T08:14:42.668Z,7.60
2019-05-07T08:15:42.968Z,7.20
2019-05-07T08:16:42.941Z,7.50
2019-05-07T08:17:04.246Z,5.97
2019-05-07T08:17:41.885Z,6.70
2019-05-07T08:18:43.611Z,7.10
2019-05-07T08:19:33.157Z,5.67
2019-05-07T08:19:42.931Z,7.50
2019-05-07T08:20:43.003Z,6.70
2019-05-07T08:21:42.044Z,7.30
2019-05-07T08:22:02.874Z,5.30
2019-05-07T08:22:42.281Z,6.60
2019-05-07T08:23:42.379Z,6.90
2019-05-07T08:24:32.347Z,4.70
2019-05-07T08:24:42.660Z,6.20
2019-05-07T08:25:42.603Z,5.20
2019-05-07T08:26:42.850Z,5.60
2019-05-07T08:27:02.326Z,5.13
2019-05-07T08:27:42.058Z,5.90
2019-05-07T08:28:41.976Z,5.60
2019-05-07T08:29:32.487Z,5.47
2019-05-07T08:29:43.013Z,5.40
2019-05-07T08:30:42.088Z,5.70
2019-05-07T08:31:42.475Z,5.20
2019-05-07T08:32:19.475Z,4.47
2019-05-07T08:32:42.591Z,5.20
2019-05-07T08:33:42.598Z,5.50
2019-05-07T08:34:42.813Z,5.50
2019-05-07T08:35:14.317Z,4.70
2019-05-07T08:35:41.995Z,5.60
2019-05-07T08:36:42.122Z,5.90
2019-05-07T08:37:42.730Z,5.20
2019-05-07T08:37:43.472Z,4.17
2019-05-07T08:38:42.619Z,5.20
2019-05-07T08:39:42.890Z,5.30
2019-05-07T08:40:12.943Z,4.43
2019-05-07T08:40:41.948Z,5.10
2019-05-07T08:41:42.280Z,5.10
2019-05-07T08:42:41.973Z,4.90
2019-05-07T08:42:42.073Z,4.10
2019-05-07T08:43:42.774Z,5.80
2019-05-07T08:44:42.954Z,5.60
2019-05-07T08:45:32.510Z,5.20
2019-05-07T08:45:43.212Z,5.30
2019-05-07T08:46:42.226Z,6.60
2019-05-07T08:47:42.558Z,5.80
2019-05-07T08:48:03.116Z,5.33
2019-05-07T08:48:42.495Z,5.80
2019-05-07T08:49:43.357Z,5.20
2019-05-07T08:50:32.690Z,4.60
2019-05-07T08:50:42.057Z,5.30
2019-05-07T08:51:42.614Z,5.70
2019-05-07T08:52:42.126Z,5.90
2019-05-07T08:53:02.827Z,4.77
2019-05-07T08:53:42.325Z,5.60
2019-05-07T08:54:42.837Z,5.70
2019-05-07T08:55:32.316Z,4.87
2019-05-07T08:55:42.480Z,5.70
2019-05-07T08:56:42.614Z,5.20
2019-05-07T08:57:42.201Z,5.40
2019-05-07T08:58:02.199Z,5.10
2019-05-07T08:58:42.223Z,5.50
2019-05-07T08:59:46.734Z,5.40
2019-05-07T09:00:32.604Z,3.97
2019-05-07T09:00:42.261Z,4.90
2019-05-07T09:01:43.267Z,4.80
2019-05-07T09:02:42.306Z,5.40
2019-05-07T09:03:01.744Z,4.63
2019-05-07T09:03:42.917Z,5.20
2019-05-07T09:04:42.347Z,5.70
2019-05-07T09:05:32.337Z,4.57
2019-05-07T09:05:42.645Z,5.90
2019-05-07T09:06:43.045Z,5.70
2019-05-07T09:07:42.625Z,5.60
2019-05-07T09:08:02.217Z,5.47
2019-05-07T09:08:43.628Z,6.00
2019-05-07T09:09:42.800Z,5.80
2019-05-07T09:10:32.550Z,5.17
2019-05-07T09:10:42.470Z,6.10
2019-05-07T09:11:42.724Z,5.80
2019-05-07T09:12:42.919Z,6.00
2019-05-07T09:13:02.818Z,5.47
2019-05-07T09:13:42.530Z,6.10
2019-05-07T09:14:42.797Z,6.40
2019-05-07T09:15:32.143Z,6.03
2019-05-07T09:15:42.614Z,6.30
2019-05-07T09:16:42.918Z,6.80
2019-05-07T09:17:42.609Z,6.10
2019-05-07T09:18:02.052Z,5.07
2019-05-07T09:18:42.657Z,5.70
2019-05-07T09:19:50.876Z,6.60
2019-05-07T09:20:32.218Z,5.20
2019-05-07T09:20:42.668Z,6.30
2019-05-07T09:21:43.033Z,6.50
2019-05-07T09:22:42.909Z,6.80